sensor_id;sensor_type;location;lat;lon;timestamp;P1;durP1;ratioP1;P2;durP2;ratioP2
43226;SDS011;28839;52.404;9.808;2022-09-09T00:00:59;1999.90;;;998.50;;
43226;SDS011;28839;52.404;9.808;2022-09-09T00:08:02;943.30;;;851.00;;
43226;SDS011;28839;52.404;9.808;2022-09-09T00:14:59;1156.18;;;929.25;;
43226;SDS011;28839;52.404;9.808;2022-09-09T00:22:01;940.97;;;843.00;;
43226;SDS011;28839;52.404;9.808;2022-09-09T00:29:14;1447.38;;;965.12;;
43226;SDS011;28839;52.404;9.808;2022-09-09T00:36:18;1001.65;;;880.15;;
43226;SDS011;28839;52.404;9.808;2022-09-09T00:43:25;1484.60;;;945.97;;
43226;SDS011;28839;52.404;9.808;2022-09-09T00:50:28;960.00;;;867.30;;
43226;SDS011;28839;52.404;9.808;2022-09-09T00:57:30;1451.47;;;947.10;;
43226;SDS011;28839;52.404;9.808;2022-09-09T01:04:27;1563.18;;;861.08;;
43226;SDS011;28839;52.404;9.808;2022-09-09T01:11:28;1338.15;;;880.95;;
43226;SDS011;28839;52.404;9.808;2022-09-09T01:18:30;1049.63;;;846.60;;
43226;SDS011;28839;52.404;9.808;2022-09-09T01:25:28;1302.47;;;849.35;;
43226;SDS011;28839;52.404;9.808;2022-09-09T01:32:39;928.30;;;828.75;;
43226;SDS011;28839;52.404;9.808;2022-09-09T01:39:35;1246.57;;;834.85;;
43226;SDS011;28839;52.404;9.808;2022-09-09T01:46:31;1012.12;;;877.05;;
43226;SDS011;28839;52.404;9.808;2022-09-09T01:53:27;613.83;;;575.27;;
43226;SDS011;28839;52.404;9.808;2022-09-09T02:00:21;897.15;;;799.30;;
43226;SDS011;28839;52.404;9.808;2022-09-09T02:07:19;868.17;;;754.25;;
43226;SDS011;28839;52.404;9.808;2022-09-09T02:14:29;947.42;;;754.75;;
43226;SDS011;28839;52.404;9.808;2022-09-09T02:21:26;613.33;;;574.55;;
43226;SDS011;28839;52.404;9.808;2022-09-09T02:28:22;780.20;;;695.95;;
43226;SDS011;28839;52.404;9.808;2022-09-09T02:35:21;805.67;;;720.95;;
43226;SDS011;28839;52.404;9.808;2022-09-09T02:42:18;828.10;;;742.15;;
43226;SDS011;28839;52.404;9.808;2022-09-09T02:49:14;770.07;;;702.27;;
43226;SDS011;28839;52.404;9.808;2022-09-09T02:56:14;796.35;;;715.92;;
43226;SDS011;28839;52.404;9.808;2022-09-09T03:03:10;728.12;;;673.33;;
43226;SDS011;28839;52.404;9.808;2022-09-09T03:10:04;195.20;;;186.40;;
43226;SDS011;28839;52.404;9.808;2022-09-09T03:17:01;271.35;;;258.73;;
43226;SDS011;28839;52.404;9.808;2022-09-09T03:23:55;159.55;;;152.48;;
43226;SDS011;28839;52.404;9.808;2022-09-09T03:30:49;465.87;;;440.60;;
43226;SDS011;28839;52.404;9.808;2022-09-09T03:37:44;168.97;;;161.30;;
43226;SDS011;28839;52.404;9.808;2022-09-09T03:44:38;761.78;;;707.75;;
43226;SDS011;28839;52.404;9.808;2022-09-09T03:51:32;600.73;;;563.30;;
43226;SDS011;28839;52.404;9.808;2022-09-09T03:58:30;709.00;;;663.78;;
43226;SDS011;28839;52.404;9.808;2022-09-09T04:05:24;320.63;;;305.42;;
43226;SDS011;28839;52.404;9.808;2022-09-09T04:12:17;193.97;;;185.57;;
43226;SDS011;28839;52.404;9.808;2022-09-09T04:19:13;424.67;;;403.67;;
43226;SDS011;28839;52.404;9.808;2022-09-09T04:26:07;525.62;;;497.45;;
43226;SDS011;28839;52.404;9.808;2022-09-09T04:33:01;481.10;;;456.67;;
43226;SDS011;28839;52.404;9.808;2022-09-09T04:39:56;599.07;;;564.70;;
43226;SDS011;28839;52.404;9.808;2022-09-09T04:46:54;437.05;;;414.87;;
43226;SDS011;28839;52.404;9.808;2022-09-09T04:53:48;358.70;;;341.42;;
43226;SDS011;28839;52.404;9.808;2022-09-09T05:00:44;346.20;;;329.77;;
43226;SDS011;28839;52.404;9.808;2022-09-09T05:07:38;132.57;;;126.50;;
43226;SDS011;28839;52.404;9.808;2022-09-09T05:14:32;515.23;;;487.17;;
43226;SDS011;28839;52.404;9.808;2022-09-09T05:21:29;678.33;;;634.70;;
43226;SDS011;28839;52.404;9.808;2022-09-09T05:28:23;624.50;;;587.50;;
43226;SDS011;28839;52.404;9.808;2022-09-09T05:35:18;644.35;;;605.37;;
43226;SDS011;28839;52.404;9.808;2022-09-09T05:42:14;646.50;;;608.08;;
43226;SDS011;28839;52.404;9.808;2022-09-09T05:49:07;277.08;;;264.45;;
43226;SDS011;28839;52.404;9.808;2022-09-09T05:56:02;402.23;;;383.27;;
43226;SDS011;28839;52.404;9.808;2022-09-09T06:02:59;807.65;;;748.90;;
43226;SDS011;28839;52.404;9.808;2022-09-09T06:09:53;290.02;;;277.10;;
43226;SDS011;28839;52.404;9.808;2022-09-09T06:16:48;175.07;;;167.07;;
43226;SDS011;28839;52.404;9.808;2022-09-09T06:23:43;587.13;;;554.50;;
43226;SDS011;28839;52.404;9.808;2022-09-09T06:30:37;220.40;;;210.30;;
43226;SDS011;28839;52.404;9.808;2022-09-09T06:44:27;33.55;;;31.25;;
43226;SDS011;28839;52.404;9.808;2022-09-09T06:51:24;106.22;;;101.20;;
43226;SDS011;28839;52.404;9.808;2022-09-09T06:58:19;106.55;;;101.50;;
43226;SDS011;28839;52.404;9.808;2022-09-09T07:05:15;161.48;;;154.07;;
43226;SDS011;28839;52.404;9.808;2022-09-09T07:12:09;560.63;;;527.58;;
43226;SDS011;28839;52.404;9.808;2022-09-09T07:19:05;567.20;;;534.10;;
43226;SDS011;28839;52.404;9.808;2022-09-09T07:26:00;950.83;;;867.97;;
43226;SDS011;28839;52.404;9.808;2022-09-09T07:32:55;1999.90;;;723.17;;
43226;SDS011;28839;52.404;9.808;2022-09-09T07:39:51;1731.22;;;826.47;;
43226;SDS011;28839;52.404;9.808;2022-09-09T07:46:46;361.40;;;288.27;;
43226;SDS011;28839;52.404;9.808;2022-09-09T07:53:40;6.15;;;2.35;;
43226;SDS011;28839;52.404;9.808;2022-09-09T08:00:34;5.90;;;2.22;;
43226;SDS011;28839;52.404;9.808;2022-09-09T08:07:29;7.78;;;1.90;;
43226;SDS011;28839;52.404;9.808;2022-09-09T08:14:23;7.65;;;1.60;;
43226;SDS011;28839;52.404;9.808;2022-09-09T08:21:19;4.22;;;1.73;;
43226;SDS011;28839;52.404;9.808;2022-09-09T08:28:15;5.70;;;1.60;;
43226;SDS011;28839;52.404;9.808;2022-09-09T08:35:09;4.85;;;1.80;;
43226;SDS011;28839;52.404;9.808;2022-09-09T08:49:38;2.30;;;1.37;;
43226;SDS011;28839;52.404;9.808;2022-09-09T08:56:42;4.10;;;1.48;;
43226;SDS011;28839;52.404;9.808;2022-09-09T09:03:39;3.80;;;1.80;;
43226;SDS011;28839;52.404;9.808;2022-09-09T09:10:45;7.15;;;1.60;;
43226;SDS011;28839;52.404;9.808;2022-09-09T09:17:41;4.45;;;1.27;;
43226;SDS011;28839;52.404;9.808;2022-09-09T09:24:39;6.72;;;1.60;;
43226;SDS011;28839;52.404;9.808;2022-09-09T09:31:39;4.53;;;1.50;;
43226;SDS011;28839;52.404;9.808;2022-09-09T09:38:37;5.30;;;1.40;;
43226;SDS011;28839;52.404;9.808;2022-09-09T09:45:32;4.85;;;1.55;;
43226;SDS011;28839;52.404;9.808;2022-09-09T09:52:29;7.70;;;2.55;;
43226;SDS011;28839;52.404;9.808;2022-09-09T09:59:32;2.65;;;1.08;;
43226;SDS011;28839;52.404;9.808;2022-09-09T10:06:31;9.30;;;1.80;;
43226;SDS011;28839;52.404;9.808;2022-09-09T10:13:29;4.35;;;1.50;;
43226;SDS011;28839;52.404;9.808;2022-09-09T10:20:32;5.78;;;1.48;;
43226;SDS011;28839;52.404;9.808;2022-09-09T10:27:33;9.45;;;1.52;;
43226;SDS011;28839;52.404;9.808;2022-09-09T10:34:42;4.75;;;1.42;;
43226;SDS011;28839;52.404;9.808;2022-09-09T10:41:49;4.18;;;1.35;;
43226;SDS011;28839;52.404;9.808;2022-09-09T10:48:54;6.95;;;1.87;;
43226;SDS011;28839;52.404;9.808;2022-09-09T10:56:04;6.45;;;1.55;;
43226;SDS011;28839;52.404;9.808;2022-09-09T11:03:01;5.97;;;1.50;;
43226;SDS011;28839;52.404;9.808;2022-09-09T11:09:58;6.25;;;1.75;;
43226;SDS011;28839;52.404;9.808;2022-09-09T11:16:58;7.65;;;2.62;;
43226;SDS011;28839;52.404;9.808;2022-09-09T11:23:54;4.35;;;1.50;;
43226;SDS011;28839;52.404;9.808;2022-09-09T11:30:55;4.62;;;1.80;;
43226;SDS011;28839;52.404;9.808;2022-09-09T11:38:06;4.55;;;1.70;;
43226;SDS011;28839;52.404;9.808;2022-09-09T11:45:11;6.25;;;1.27;;
43226;SDS011;28839;52.404;9.808;2022-09-09T11:52:20;5.70;;;1.10;;
43226;SDS011;28839;52.404;9.808;2022-09-09T11:59:21;3.40;;;1.00;;
43226;SDS011;28839;52.404;9.808;2022-09-09T12:06:18;4.65;;;0.98;;
43226;SDS011;28839;52.404;9.808;2022-09-09T12:13:24;3.40;;;1.05;;
43226;SDS011;28839;52.404;9.808;2022-09-09T12:20:22;3.90;;;1.00;;
43226;SDS011;28839;52.404;9.808;2022-09-09T12:27:20;2.80;;;1.10;;
43226;SDS011;28839;52.404;9.808;2022-09-09T12:34:23;5.57;;;2.25;;
43226;SDS011;28839;52.404;9.808;2022-09-09T12:41:34;4.62;;;1.02;;
43226;SDS011;28839;52.404;9.808;2022-09-09T12:48:31;3.92;;;1.50;;
43226;SDS011;28839;52.404;9.808;2022-09-09T12:55:31;3.72;;;1.10;;
43226;SDS011;28839;52.404;9.808;2022-09-09T13:02:29;1.85;;;0.93;;
43226;SDS011;28839;52.404;9.808;2022-09-09T13:09:23;2.70;;;1.00;;
43226;SDS011;28839;52.404;9.808;2022-09-09T13:16:19;3.67;;;0.90;;
43226;SDS011;28839;52.404;9.808;2022-09-09T13:23:17;2.05;;;0.90;;
43226;SDS011;28839;52.404;9.808;2022-09-09T13:30:22;1.95;;;1.27;;
43226;SDS011;28839;52.404;9.808;2022-09-09T13:44:17;3.42;;;1.20;;
43226;SDS011;28839;52.404;9.808;2022-09-09T13:51:24;8.88;;;1.23;;
43226;SDS011;28839;52.404;9.808;2022-09-09T13:58:24;4.50;;;1.10;;
43226;SDS011;28839;52.404;9.808;2022-09-09T14:12:14;4.27;;;1.50;;
43226;SDS011;28839;52.404;9.808;2022-09-09T14:19:08;6.22;;;1.30;;
43226;SDS011;28839;52.404;9.808;2022-09-09T14:32:57;4.87;;;1.42;;
43226;SDS011;28839;52.404;9.808;2022-09-09T14:39:52;2.60;;;1.27;;
43226;SDS011;28839;52.404;9.808;2022-09-09T14:46:46;4.55;;;1.10;;
43226;SDS011;28839;52.404;9.808;2022-09-09T14:53:43;5.25;;;1.12;;
43226;SDS011;28839;52.404;9.808;2022-09-09T15:00:37;7.37;;;1.60;;
43226;SDS011;28839;52.404;9.808;2022-09-09T15:07:31;1.90;;;0.90;;
43226;SDS011;28839;52.404;9.808;2022-09-09T15:14:27;3.47;;;1.25;;
43226;SDS011;28839;52.404;9.808;2022-09-09T15:21:22;5.40;;;1.33;;
43226;SDS011;28839;52.404;9.808;2022-09-09T15:28:17;5.45;;;1.17;;
43226;SDS011;28839;52.404;9.808;2022-09-09T15:35:13;5.50;;;1.10;;
43226;SDS011;28839;52.404;9.808;2022-09-09T15:42:07;4.50;;;1.23;;
43226;SDS011;28839;52.404;9.808;2022-09-09T15:49:03;7.97;;;1.40;;
43226;SDS011;28839;52.404;9.808;2022-09-09T15:56:02;3.53;;;1.40;;
43226;SDS011;28839;52.404;9.808;2022-09-09T16:02:56;3.47;;;1.45;;
43226;SDS011;28839;52.404;9.808;2022-09-09T16:09:50;3.15;;;1.20;;
43226;SDS011;28839;52.404;9.808;2022-09-09T16:16:46;2.70;;;1.00;;
43226;SDS011;28839;52.404;9.808;2022-09-09T16:23:40;5.95;;;1.30;;
43226;SDS011;28839;52.404;9.808;2022-09-09T16:30:34;5.22;;;1.62;;
43226;SDS011;28839;52.404;9.808;2022-09-09T16:37:31;4.45;;;1.62;;
43226;SDS011;28839;52.404;9.808;2022-09-09T16:44:26;5.90;;;1.37;;
43226;SDS011;28839;52.404;9.808;2022-09-09T16:51:20;4.45;;;2.05;;
43226;SDS011;28839;52.404;9.808;2022-09-09T16:58:17;2.85;;;1.70;;
43226;SDS011;28839;52.404;9.808;2022-09-09T17:05:11;4.22;;;1.73;;
43226;SDS011;28839;52.404;9.808;2022-09-09T17:12:06;4.75;;;1.80;;
43226;SDS011;28839;52.404;9.808;2022-09-09T17:19:02;5.55;;;1.92;;
43226;SDS011;28839;52.404;9.808;2022-09-09T17:25:56;4.60;;;1.77;;
43226;SDS011;28839;52.404;9.808;2022-09-09T17:32:52;6.82;;;3.10;;
43226;SDS011;28839;52.404;9.808;2022-09-09T17:46:42;6.43;;;2.50;;
43226;SDS011;28839;52.404;9.808;2022-09-09T17:53:37;6.90;;;2.33;;
43226;SDS011;28839;52.404;9.808;2022-09-09T18:00:33;4.57;;;2.45;;
43226;SDS011;28839;52.404;9.808;2022-09-09T18:07:28;7.50;;;2.05;;
43226;SDS011;28839;52.404;9.808;2022-09-09T18:14:23;7.28;;;1.92;;
43226;SDS011;28839;52.404;9.808;2022-09-09T18:21:19;8.02;;;2.75;;
43226;SDS011;28839;52.404;9.808;2022-09-09T18:28:15;5.93;;;2.00;;
43226;SDS011;28839;52.404;9.808;2022-09-09T18:35:09;3.28;;;2.25;;
43226;SDS011;28839;52.404;9.808;2022-09-09T18:42:04;4.05;;;2.30;;
43226;SDS011;28839;52.404;9.808;2022-09-09T18:48:58;5.68;;;2.17;;
43226;SDS011;28839;52.404;9.808;2022-09-09T18:55:56;2.97;;;2.20;;
43226;SDS011;28839;52.404;9.808;2022-09-09T19:02:52;6.10;;;2.70;;
43226;SDS011;28839;52.404;9.808;2022-09-09T19:09:46;3.70;;;1.80;;
43226;SDS011;28839;52.404;9.808;2022-09-09T19:16:40;4.47;;;1.48;;
43226;SDS011;28839;52.404;9.808;2022-09-09T19:23:37;8.13;;;3.25;;
43226;SDS011;28839;52.404;9.808;2022-09-09T19:30:33;7.97;;;4.10;;
43226;SDS011;28839;52.404;9.808;2022-09-09T19:37:28;4.70;;;2.00;;
43226;SDS011;28839;52.404;9.808;2022-09-09T19:44:24;2.78;;;1.37;;
43226;SDS011;28839;52.404;9.808;2022-09-09T19:51:18;3.17;;;1.30;;
43226;SDS011;28839;52.404;9.808;2022-09-09T19:58:13;3.12;;;1.48;;
43226;SDS011;28839;52.404;9.808;2022-09-09T20:05:09;5.15;;;2.15;;
43226;SDS011;28839;52.404;9.808;2022-09-09T20:12:05;2.90;;;1.55;;
43226;SDS011;28839;52.404;9.808;2022-09-09T20:19:00;4.78;;;1.67;;
43226;SDS011;28839;52.404;9.808;2022-09-09T20:25:59;6.40;;;1.98;;
43226;SDS011;28839;52.404;9.808;2022-09-09T20:32:55;4.40;;;2.15;;
43226;SDS011;28839;52.404;9.808;2022-09-09T20:39:49;3.90;;;2.05;;
43226;SDS011;28839;52.404;9.808;2022-09-09T20:53:40;7.87;;;3.50;;
43226;SDS011;28839;52.404;9.808;2022-09-09T21:00:33;7.23;;;2.60;;
43226;SDS011;28839;52.404;9.808;2022-09-09T21:07:29;2.97;;;1.97;;
43226;SDS011;28839;52.404;9.808;2022-09-09T21:14:23;4.57;;;2.20;;
43226;SDS011;28839;52.404;9.808;2022-09-09T21:21:18;4.22;;;2.20;;
43226;SDS011;28839;52.404;9.808;2022-09-09T21:28:14;4.18;;;2.37;;
43226;SDS011;28839;52.404;9.808;2022-09-09T21:35:11;6.80;;;2.50;;
43226;SDS011;28839;52.404;9.808;2022-09-09T21:42:05;8.07;;;2.60;;
43226;SDS011;28839;52.404;9.808;2022-09-09T21:49:00;4.78;;;2.80;;
43226;SDS011;28839;52.404;9.808;2022-09-09T21:55:59;5.72;;;2.42;;
43226;SDS011;28839;52.404;9.808;2022-09-09T22:02:53;6.45;;;2.62;;
43226;SDS011;28839;52.404;9.808;2022-09-09T22:09:48;6.43;;;3.43;;
43226;SDS011;28839;52.404;9.808;2022-09-09T22:16:42;320.80;;;295.63;;
43226;SDS011;28839;52.404;9.808;2022-09-09T22:30:32;316.15;;;291.70;;
43226;SDS011;28839;52.404;9.808;2022-09-09T22:37:26;1304.68;;;447.73;;
43226;SDS011;28839;52.404;9.808;2022-09-09T22:44:21;51.37;;;48.77;;
43226;SDS011;28839;52.404;9.808;2022-09-09T22:51:16;1999.90;;;712.20;;
43226;SDS011;28839;52.404;9.808;2022-09-09T22:58:10;168.82;;;159.40;;
43226;SDS011;28839;52.404;9.808;2022-09-09T23:05:04;123.77;;;116.83;;
43226;SDS011;28839;52.404;9.808;2022-09-09T23:12:01;1487.72;;;768.22;;
43226;SDS011;28839;52.404;9.808;2022-09-09T23:18:55;619.95;;;534.95;;
43226;SDS011;28839;52.404;9.808;2022-09-09T23:25:50;325.00;;;301.60;;
43226;SDS011;28839;52.404;9.808;2022-09-09T23:32:46;399.30;;;366.90;;
43226;SDS011;28839;52.404;9.808;2022-09-09T23:39:41;1388.22;;;472.63;;
43226;SDS011;28839;52.404;9.808;2022-09-09T23:46:34;1123.50;;;744.70;;
43226;SDS011;28839;52.404;9.808;2022-09-09T23:53:30;250.37;;;234.80;;
